createdAt,value
2019-06-08T00:00:28.762Z,0.00
2019-06-08T00:01:28.711Z,0.00
2019-06-08T00:02:28.684Z,0.00
2019-06-08T00:03:28.668Z,0.00
2019-06-08T00:04:28.653Z,0.00
2019-06-08T00:05:28.606Z,0.00
2019-06-08T00:06:28.606Z,0.00
2019-06-08T00:07:28.527Z,0.00
2019-06-08T00:08:28.474Z,0.00
2019-06-08T00:09:28.507Z,0.00
2019-06-08T00:10:28.413Z,0.00
2019-06-08T00:11:28.362Z,0.00
2019-06-08T00:12:28.357Z,0.00
2019-06-08T00:13:28.316Z,0.00
2019-06-08T00:14:28.303Z,0.00
2019-06-08T00:15:28.233Z,0.00
2019-06-08T00:16:28.211Z,0.00
2019-06-08T00:17:38.050Z,0.00
2019-06-08T00:18:28.133Z,0.00
2019-06-08T00:19:28.099Z,0.00
2019-06-08T00:20:28.076Z,0.00
2019-06-08T00:21:28.093Z,0.00
2019-06-08T00:22:28.006Z,0.00
2019-06-08T00:23:27.965Z,0.00
2019-06-08T00:24:27.934Z,0.00
2019-06-08T00:25:27.897Z,0.00
2019-06-08T00:26:27.870Z,0.00
2019-06-08T00:27:27.830Z,0.00
2019-06-08T00:28:27.797Z,0.00
2019-06-08T00:29:27.767Z,0.00
2019-06-08T00:30:28.834Z,0.00
2019-06-08T00:31:27.760Z,0.00
2019-06-08T00:32:27.744Z,0.00
2019-06-08T00:33:27.662Z,0.00
2019-06-08T00:34:27.616Z,0.00
2019-06-08T00:35:27.582Z,0.00
2019-06-08T00:36:27.602Z,0.00
2019-06-08T00:37:27.494Z,0.00
2019-06-08T00:38:27.471Z,0.00
2019-06-08T00:39:27.441Z,0.00
2019-06-08T00:40:27.425Z,0.00
2019-06-08T00:41:27.413Z,0.00
2019-06-08T00:42:27.379Z,0.00
2019-06-08T00:43:27.336Z,0.00
2019-06-08T00:44:27.260Z,0.00
2019-06-08T00:45:27.222Z,0.00
2019-06-08T00:46:27.188Z,0.00
2019-06-08T00:47:44.958Z,0.00
2019-06-08T00:48:27.118Z,0.00
2019-06-08T00:49:27.089Z,0.00
2019-06-08T00:50:27.052Z,0.00
2019-06-08T00:51:27.020Z,0.00
2019-06-08T00:52:26.985Z,0.00
2019-06-08T00:53:26.950Z,0.00
2019-06-08T00:54:26.915Z,0.00
2019-06-08T00:55:26.877Z,0.00
2019-06-08T00:56:26.853Z,0.00
2019-06-08T00:57:26.809Z,0.00
2019-06-08T00:58:26.777Z,0.00
2019-06-08T00:59:26.776Z,0.00
2019-06-08T01:00:26.931Z,0.00
2019-06-08T01:01:28.165Z,0.00
2019-06-08T01:02:26.880Z,0.00
2019-06-08T01:03:26.615Z,0.00
2019-06-08T01:04:27.127Z,0.00
2019-06-08T01:05:26.582Z,0.00
2019-06-08T01:06:27.547Z,0.00
2019-06-08T01:07:26.503Z,0.00
2019-06-08T01:08:27.445Z,0.00
2019-06-08T01:09:26.449Z,0.00
2019-06-08T01:10:27.520Z,0.00
2019-06-08T01:11:26.933Z,0.00
2019-06-08T01:12:26.791Z,0.00
2019-06-08T01:13:26.942Z,0.00
2019-06-08T01:14:27.102Z,0.00
2019-06-08T01:15:32.209Z,0.00
2019-06-08T01:16:27.007Z,0.00
2019-06-08T01:17:27.498Z,0.00
2019-06-08T01:18:27.368Z,0.00
2019-06-08T01:19:27.253Z,0.00
2019-06-08T01:20:27.358Z,0.00
2019-06-08T01:21:25.986Z,0.00
2019-06-08T01:22:25.947Z,0.00
2019-06-08T01:23:25.911Z,0.00
2019-06-08T01:24:25.878Z,0.00
2019-06-08T01:25:25.894Z,0.00
2019-06-08T01:26:26.059Z,0.00
2019-06-08T01:27:26.081Z,0.00
2019-06-08T01:28:26.166Z,0.00
2019-06-08T01:29:26.304Z,0.00
2019-06-08T01:30:26.360Z,0.00
2019-06-08T01:31:26.600Z,0.00
2019-06-08T01:32:26.404Z,0.00
2019-06-08T01:33:26.611Z,0.00
2019-06-08T01:34:26.865Z,0.00
2019-06-08T01:35:26.815Z,0.00
2019-06-08T01:36:25.504Z,0.00
2019-06-08T01:37:25.445Z,0.00
2019-06-08T01:38:25.423Z,0.00
2019-06-08T01:39:25.355Z,0.00
2019-06-08T01:40:25.427Z,0.00
2019-06-08T01:41:25.479Z,0.00
2019-06-08T01:42:25.538Z,0.00
2019-06-08T01:43:25.785Z,0.00
2019-06-08T01:44:25.643Z,0.00
2019-06-08T01:45:25.654Z,0.00
2019-06-08T01:46:25.863Z,0.00
2019-06-08T01:47:26.178Z,0.00
2019-06-08T01:48:26.163Z,0.00
2019-06-08T01:49:26.099Z,0.00
2019-06-08T01:50:24.975Z,0.00
2019-06-08T01:51:24.927Z,0.00
2019-06-08T01:52:24.900Z,0.00
2019-06-08T01:53:24.868Z,0.00
2019-06-08T01:54:24.825Z,0.00
2019-06-08T01:55:25.124Z,0.00
2019-06-08T01:56:24.948Z,0.00
2019-06-08T01:57:25.264Z,0.00
2019-06-08T01:58:25.339Z,0.00
2019-06-08T01:59:25.307Z,0.00
2019-06-08T02:00:39.242Z,0.00
2019-06-08T02:01:25.471Z,0.00
2019-06-08T02:02:25.679Z,0.00
2019-06-08T02:03:24.561Z,0.00
2019-06-08T02:04:24.508Z,0.00
2019-06-08T02:05:24.450Z,0.00
2019-06-08T02:06:24.416Z,0.00
2019-06-08T02:07:24.382Z,0.00
2019-06-08T02:08:24.483Z,0.00
2019-06-08T02:09:24.590Z,0.00
2019-06-08T02:10:24.415Z,0.00
2019-06-08T02:11:24.531Z,0.00
2019-06-08T02:12:24.811Z,0.00
2019-06-08T02:13:24.929Z,0.00
2019-06-08T02:14:25.040Z,0.00
2019-06-08T02:15:25.172Z,0.00
2019-06-08T02:16:25.590Z,4.00
2019-06-08T02:17:25.089Z,4.00
2019-06-08T02:18:36.729Z,4.00
2019-06-08T02:19:23.946Z,4.00
2019-06-08T02:20:23.915Z,4.00
2019-06-08T02:21:23.878Z,4.00
2019-06-08T02:22:23.841Z,4.00
2019-06-08T02:23:23.821Z,4.00
2019-06-08T02:24:23.775Z,0.00
2019-06-08T02:25:23.732Z,4.00
2019-06-08T02:26:26.979Z,4.00
2019-06-08T02:27:23.677Z,4.00
2019-06-08T02:28:23.666Z,4.00
2019-06-08T02:29:23.616Z,4.00
2019-06-08T02:30:23.602Z,8.00
2019-06-08T02:31:23.551Z,4.00
2019-06-08T02:32:23.547Z,8.00
2019-06-08T02:33:23.503Z,8.00
2019-06-08T02:34:23.450Z,12.00
2019-06-08T02:35:23.409Z,12.00
2019-06-08T02:36:23.402Z,12.00
2019-06-08T02:37:23.368Z,16.00
2019-06-08T02:38:23.298Z,20.00
2019-06-08T02:39:23.283Z,20.00
2019-06-08T02:40:23.239Z,24.00
2019-06-08T02:41:23.190Z,28.00
2019-06-08T02:42:23.175Z,32.00
2019-06-08T02:43:23.106Z,36.00
2019-06-08T02:44:23.064Z,44.00
2019-06-08T02:45:23.025Z,48.00
2019-06-08T02:46:22.993Z,52.00
2019-06-08T02:47:22.955Z,60.00
2019-06-08T02:48:23.014Z,68.00
2019-06-08T02:49:22.888Z,80.00
2019-06-08T02:50:22.850Z,96.00
2019-06-08T02:51:22.829Z,120.00
2019-06-08T02:52:22.781Z,148.00
2019-06-08T02:53:22.753Z,168.00
2019-06-08T02:54:22.764Z,196.00
2019-06-08T02:55:22.676Z,224.00
2019-06-08T02:56:22.636Z,256.00
2019-06-08T02:57:22.634Z,296.00
2019-06-08T02:58:22.605Z,328.00
2019-06-08T02:59:22.532Z,364.00
2019-06-08T03:00:22.527Z,408.00
2019-06-08T03:01:22.461Z,464.00
2019-06-08T03:02:22.424Z,516.00
2019-06-08T03:03:22.408Z,568.00
2019-06-08T03:04:22.364Z,628.00
2019-06-08T03:05:22.332Z,692.00
2019-06-08T03:06:22.312Z,740.00
2019-06-08T03:07:22.275Z,792.00
2019-06-08T03:08:22.259Z,852.00
2019-06-08T03:09:22.182Z,920.00
2019-06-08T03:10:22.178Z,980.00
2019-06-08T03:11:22.146Z,1040.00
2019-06-08T03:12:22.063Z,1076.00
2019-06-08T03:13:22.038Z,1104.00
2019-06-08T03:14:21.999Z,1140.00
2019-06-08T03:15:21.966Z,1156.00
2019-06-08T03:16:21.923Z,1200.00
2019-06-08T03:17:21.892Z,1240.00
2019-06-08T03:18:21.855Z,1300.00
2019-06-08T03:19:23.123Z,1384.00
2019-06-08T03:20:21.779Z,1460.00
2019-06-08T03:21:21.739Z,1516.00
2019-06-08T03:22:21.713Z,1588.00
2019-06-08T03:23:21.672Z,1672.00
2019-06-08T03:24:21.636Z,1764.00
2019-06-08T03:25:21.596Z,1876.00
2019-06-08T03:26:21.576Z,1984.00
2019-06-08T03:27:21.548Z,2088.00
2019-06-08T03:28:21.555Z,2164.00
2019-06-08T03:29:21.552Z,2244.00
2019-06-08T03:30:21.445Z,2312.00
2019-06-08T03:31:21.405Z,2376.00
2019-06-08T03:32:21.359Z,2452.00
2019-06-08T03:33:21.331Z,2556.00
2019-06-08T03:34:21.292Z,2676.00
2019-06-08T03:35:21.249Z,2800.00
2019-06-08T03:36:21.239Z,2912.00
2019-06-08T03:37:21.220Z,3000.00
2019-06-08T03:38:21.170Z,3060.00
2019-06-08T03:39:21.172Z,3096.00
2019-06-08T03:40:21.079Z,3132.00
2019-06-08T03:41:21.055Z,3184.00
2019-06-08T03:42:21.028Z,3248.00
2019-06-08T03:43:20.973Z,3340.00
2019-06-08T03:44:20.980Z,3436.00
2019-06-08T03:45:20.883Z,3552.00
2019-06-08T03:46:20.851Z,3680.00
2019-06-08T03:47:20.826Z,3812.00
2019-06-08T03:48:20.808Z,3948.00
2019-06-08T03:49:39.997Z,4096.00
2019-06-08T03:50:20.706Z,4248.00
2019-06-08T03:51:20.657Z,4396.00
2019-06-08T03:52:20.645Z,4512.00
2019-06-08T03:53:20.592Z,4600.00
2019-06-08T03:54:20.557Z,4688.00
2019-06-08T03:55:20.515Z,4796.00
2019-06-08T03:56:20.478Z,4892.00
2019-06-08T03:57:20.475Z,5000.00
2019-06-08T03:58:20.441Z,5104.00
2019-06-08T03:59:20.380Z,5212.00
2019-06-08T04:00:20.363Z,5340.00
2019-06-08T04:01:20.330Z,5452.00
2019-06-08T04:02:20.285Z,5524.00
2019-06-08T04:03:20.248Z,5576.00
2019-06-08T04:04:20.233Z,5640.00
2019-06-08T04:05:20.193Z,5732.00
2019-06-08T04:06:20.164Z,5876.00
2019-06-08T04:07:20.099Z,6284.00
2019-06-08T04:08:20.059Z,7160.00
2019-06-08T04:09:20.075Z,8688.00
2019-06-08T04:10:20.007Z,9200.00
2019-06-08T04:11:19.954Z,9668.00
2019-06-08T04:12:19.902Z,10008.00
2019-06-08T04:13:19.856Z,9996.00
2019-06-08T04:14:19.832Z,10552.00
2019-06-08T04:15:19.802Z,10780.00
2019-06-08T04:16:19.760Z,10304.00
2019-06-08T04:17:19.726Z,9904.00
2019-06-08T04:18:19.687Z,14500.00
2019-06-08T04:19:19.645Z,15360.00
2019-06-08T04:20:19.613Z,16000.00
2019-06-08T04:21:19.578Z,16352.00
2019-06-08T04:22:19.536Z,16608.00
2019-06-08T04:23:19.503Z,17504.00
2019-06-08T04:24:19.468Z,18848.00
2019-06-08T04:25:19.432Z,18752.00
2019-06-08T04:26:19.427Z,18496.00
2019-06-08T04:27:19.407Z,17088.00
2019-06-08T04:28:19.412Z,15552.00
2019-06-08T04:29:19.331Z,10420.00
2019-06-08T04:30:19.284Z,9808.00
2019-06-08T04:31:19.267Z,9796.00
2019-06-08T04:32:19.207Z,9308.00
2019-06-08T04:33:19.190Z,9020.00
2019-06-08T04:34:19.159Z,9612.00
2019-06-08T04:35:19.097Z,8448.00
2019-06-08T04:36:19.079Z,8636.00
2019-06-08T04:37:19.096Z,8472.00
2019-06-08T04:38:19.035Z,8444.00
2019-06-08T04:39:19.016Z,8464.00
2019-06-08T04:40:18.918Z,8632.00
2019-06-08T04:41:18.884Z,8860.00
2019-06-08T04:42:18.859Z,9056.00
2019-06-08T04:43:18.818Z,9164.00
2019-06-08T04:44:18.788Z,9272.00
2019-06-08T04:45:18.773Z,9480.00
2019-06-08T04:46:18.733Z,9716.00
2019-06-08T04:47:18.684Z,10044.00
2019-06-08T04:48:18.648Z,10196.00
2019-06-08T04:49:18.622Z,10052.00
2019-06-08T04:50:23.251Z,9824.00
2019-06-08T04:51:18.550Z,9820.00
2019-06-08T04:52:18.519Z,10104.00
2019-06-08T04:53:18.496Z,10144.00
2019-06-08T04:54:18.447Z,9976.00
2019-06-08T04:55:18.483Z,9636.00
2019-06-08T04:56:18.390Z,9072.00
2019-06-08T04:57:18.421Z,8896.00
2019-06-08T04:58:18.370Z,9396.00
2019-06-08T04:59:18.293Z,10584.00
2019-06-08T05:00:18.287Z,12248.00
2019-06-08T05:01:18.217Z,13580.00
2019-06-08T05:02:18.286Z,15056.00
2019-06-08T05:03:18.165Z,15776.00
2019-06-08T05:04:18.152Z,14004.00
2019-06-08T05:05:18.086Z,13416.00
2019-06-08T05:06:18.045Z,12976.00
2019-06-08T05:07:18.018Z,10776.00
2019-06-08T05:08:18.001Z,8700.00
2019-06-08T05:09:17.956Z,7776.00
2019-06-08T05:10:17.917Z,7664.00
2019-06-08T05:11:17.889Z,7400.00
2019-06-08T05:12:17.826Z,6868.00
2019-06-08T05:13:17.802Z,6600.00
2019-06-08T05:14:17.768Z,6704.00
2019-06-08T05:15:17.740Z,6904.00
2019-06-08T05:16:17.699Z,6808.00
2019-06-08T05:17:17.672Z,6324.00
2019-06-08T05:18:17.622Z,5768.00
2019-06-08T05:19:17.587Z,5664.00
2019-06-08T05:20:17.562Z,5772.00
2019-06-08T05:21:17.528Z,5704.00
2019-06-08T05:22:17.523Z,5524.00
2019-06-08T05:23:17.463Z,5444.00
2019-06-08T05:24:17.434Z,5364.00
2019-06-08T05:25:17.401Z,5328.00
2019-06-08T05:26:17.363Z,5300.00
2019-06-08T05:27:17.325Z,5192.00
2019-06-08T05:28:17.303Z,4992.00
2019-06-08T05:29:17.260Z,4792.00
2019-06-08T05:30:17.251Z,4564.00
2019-06-08T05:31:17.191Z,4352.00
2019-06-08T05:32:17.149Z,4112.00
2019-06-08T05:33:17.123Z,3888.00
2019-06-08T05:34:17.180Z,3588.00
2019-06-08T05:35:17.078Z,3320.00
2019-06-08T05:36:17.064Z,3284.00
2019-06-08T05:37:17.008Z,3692.00
2019-06-08T05:38:17.026Z,4576.00
2019-06-08T05:39:16.918Z,5576.00
2019-06-08T05:40:16.918Z,5652.00
2019-06-08T05:41:16.846Z,5224.00
2019-06-08T05:42:16.821Z,4900.00
2019-06-08T05:43:16.772Z,4904.00
2019-06-08T05:44:16.737Z,5240.00
2019-06-08T05:45:16.713Z,5304.00
2019-06-08T05:46:16.682Z,5084.00
2019-06-08T05:47:16.628Z,4720.00
2019-06-08T05:48:16.606Z,5100.00
2019-06-08T05:49:16.560Z,6204.00
2019-06-08T05:50:16.537Z,7444.00
2019-06-08T05:51:16.531Z,8312.00
2019-06-08T05:52:16.454Z,9292.00
2019-06-08T05:53:16.426Z,9808.00
2019-06-08T05:54:16.389Z,8568.00
2019-06-08T05:55:16.388Z,6396.00
2019-06-08T05:56:16.327Z,4720.00
2019-06-08T05:57:16.292Z,3720.00
2019-06-08T05:58:16.260Z,3268.00
2019-06-08T05:59:16.236Z,3200.00
2019-06-08T06:00:16.185Z,3444.00
2019-06-08T06:01:16.160Z,3904.00
2019-06-08T06:02:16.132Z,4284.00
2019-06-08T06:03:16.092Z,4252.00
2019-06-08T06:04:16.063Z,4024.00
2019-06-08T06:05:16.009Z,3780.00
2019-06-08T06:06:15.993Z,3688.00
2019-06-08T06:07:15.963Z,3528.00
2019-06-08T06:08:19.146Z,3388.00
2019-06-08T06:09:15.872Z,3360.00
2019-06-08T06:10:15.840Z,3424.00
2019-06-08T06:11:15.836Z,3548.00
2019-06-08T06:12:15.772Z,3668.00
2019-06-08T06:13:15.768Z,3852.00
2019-06-08T06:14:15.699Z,4156.00
2019-06-08T06:15:15.651Z,4440.00
2019-06-08T06:16:15.672Z,4492.00
2019-06-08T06:17:15.733Z,4272.00
2019-06-08T06:18:15.656Z,3956.00
2019-06-08T06:19:15.533Z,3760.00
2019-06-08T06:20:15.492Z,3548.00
2019-06-08T06:21:15.506Z,3360.00
2019-06-08T06:22:15.493Z,3368.00
2019-06-08T06:23:15.384Z,3688.00
2019-06-08T06:24:15.395Z,4232.00
2019-06-08T06:25:15.328Z,4624.00
2019-06-08T06:26:15.295Z,4560.00
2019-06-08T06:27:15.265Z,4252.00
2019-06-08T06:28:15.238Z,3992.00
2019-06-08T06:29:15.164Z,4004.00
2019-06-08T06:30:15.138Z,4296.00
2019-06-08T06:31:15.122Z,4552.00
2019-06-08T06:32:15.115Z,4376.00
2019-06-08T06:33:15.050Z,3992.00
2019-06-08T06:34:15.007Z,4320.00
2019-06-08T06:35:14.969Z,5180.00
2019-06-08T06:36:15.019Z,5964.00
2019-06-08T06:37:14.903Z,6660.00
2019-06-08T06:38:14.864Z,7348.00
2019-06-08T06:39:14.826Z,8012.00
2019-06-08T06:40:14.781Z,8700.00
2019-06-08T06:41:14.786Z,9744.00
2019-06-08T06:42:14.728Z,11164.00
2019-06-08T06:43:14.748Z,12364.00
2019-06-08T06:44:14.644Z,12872.00
2019-06-08T06:45:14.631Z,12884.00
2019-06-08T06:46:14.587Z,12308.00
2019-06-08T06:47:14.557Z,11448.00
2019-06-08T06:48:14.507Z,10712.00
2019-06-08T06:49:14.467Z,9816.00
2019-06-08T06:50:14.479Z,8672.00
2019-06-08T06:51:25.689Z,7488.00
2019-06-08T06:52:14.437Z,6988.00
2019-06-08T06:53:14.419Z,8416.00
2019-06-08T06:54:14.320Z,12172.00
2019-06-08T06:55:14.255Z,17000.00
2019-06-08T06:56:14.230Z,21312.00
2019-06-08T06:57:14.186Z,23872.00
2019-06-08T06:58:14.199Z,25024.00
2019-06-08T06:59:14.131Z,25664.00
2019-06-08T07:00:14.135Z,27264.00
2019-06-08T07:01:14.073Z,29920.00
2019-06-08T07:02:14.053Z,30688.00
2019-06-08T07:03:14.062Z,32192.00
2019-06-08T07:04:13.970Z,40928.00
2019-06-08T07:05:13.945Z,28928.00
2019-06-08T07:06:13.892Z,28448.00
2019-06-08T07:07:13.928Z,31200.00
2019-06-08T07:08:13.840Z,35648.00
2019-06-08T07:09:13.795Z,36320.00
2019-06-08T07:10:13.746Z,34240.00
2019-06-08T07:11:13.727Z,34528.00
2019-06-08T07:12:13.677Z,53504.00
2019-06-08T07:13:13.646Z,30880.00
2019-06-08T07:14:13.663Z,25664.00
2019-06-08T07:15:13.590Z,19776.00
2019-06-08T07:16:18.461Z,15432.00
2019-06-08T07:17:13.500Z,12672.00
2019-06-08T07:18:13.478Z,10856.00
2019-06-08T07:19:13.440Z,9780.00
2019-06-08T07:20:13.438Z,9324.00
2019-06-08T07:21:13.379Z,9332.00
2019-06-08T07:22:13.343Z,9628.00
2019-06-08T07:23:13.310Z,9804.00
2019-06-08T07:24:13.276Z,10020.00
2019-06-08T07:25:13.284Z,10680.00
2019-06-08T07:26:13.287Z,11728.00
2019-06-08T07:27:13.199Z,13432.00
2019-06-08T07:28:13.136Z,15224.00
2019-06-08T07:29:13.135Z,17304.00
2019-06-08T07:30:13.132Z,19968.00
2019-06-08T07:31:13.045Z,22816.00
2019-06-08T07:32:13.008Z,25600.00
2019-06-08T07:33:12.980Z,27872.00
2019-06-08T07:34:13.014Z,28032.00
2019-06-08T07:35:12.930Z,26976.00
2019-06-08T07:36:12.910Z,25920.00
2019-06-08T07:37:12.875Z,23936.00
2019-06-08T07:38:12.879Z,21856.00
2019-06-08T07:39:12.772Z,20512.00
2019-06-08T07:40:12.749Z,18752.00
2019-06-08T07:41:12.713Z,16996.00
2019-06-08T07:42:12.680Z,16680.00
2019-06-08T07:43:12.648Z,17696.00
2019-06-08T07:44:12.608Z,18112.00
2019-06-08T07:45:12.574Z,17632.00
2019-06-08T07:46:12.539Z,17168.00
2019-06-08T07:47:12.506Z,16376.00
2019-06-08T07:48:12.470Z,17128.00
2019-06-08T07:49:12.446Z,20608.00
2019-06-08T07:50:12.419Z,25184.00
2019-06-08T07:51:12.369Z,29440.00
2019-06-08T07:52:12.348Z,33664.00
2019-06-08T07:53:12.311Z,35264.00
2019-06-08T07:54:12.266Z,38560.00
2019-06-08T07:55:12.263Z,36416.00
2019-06-08T07:56:12.252Z,34560.00
2019-06-08T07:57:12.228Z,32288.00
2019-06-08T07:58:12.139Z,32480.00
2019-06-08T07:59:12.132Z,34048.00
2019-06-08T08:00:12.096Z,37824.00
2019-06-08T08:01:12.046Z,43552.00
2019-06-08T08:02:12.035Z,44384.00
2019-06-08T08:03:11.986Z,41920.00
2019-06-08T08:04:11.975Z,39776.00
2019-06-08T08:05:11.921Z,43328.00
2019-06-08T08:06:11.883Z,39872.00
2019-06-08T08:07:11.902Z,32352.00
2019-06-08T08:08:11.823Z,27104.00
2019-06-08T08:09:11.803Z,25504.00
2019-06-08T08:10:11.810Z,25440.00
2019-06-08T08:11:11.724Z,27136.00
2019-06-08T08:12:12.391Z,30336.00
2019-06-08T08:13:11.649Z,34432.00
2019-06-08T08:14:11.613Z,36448.00
2019-06-08T08:15:11.600Z,35648.00
2019-06-08T08:16:11.561Z,36832.00
2019-06-08T08:17:11.539Z,37600.00
2019-06-08T08:18:11.492Z,34208.00
2019-06-08T08:19:11.460Z,27872.00
2019-06-08T08:20:11.439Z,22912.00
2019-06-08T08:21:21.823Z,20608.00
2019-06-08T08:22:22.317Z,19840.00
2019-06-08T08:23:11.333Z,20672.00
2019-06-08T08:24:11.299Z,22784.00
2019-06-08T08:25:11.393Z,25376.00
2019-06-08T08:26:11.250Z,29120.00
2019-06-08T08:27:11.197Z,35008.00
2019-06-08T08:28:11.184Z,41952.00
2019-06-08T08:29:11.149Z,47008.00
2019-06-08T08:30:11.121Z,47904.00
2019-06-08T08:31:13.246Z,53216.00
2019-06-08T08:32:11.104Z,98624.00
2019-06-08T08:33:11.037Z,61760.00
2019-06-08T08:34:10.982Z,53024.00
2019-06-08T08:35:10.955Z,55040.00
2019-06-08T08:36:10.973Z,87648.00
2019-06-08T08:37:10.902Z,52672.00
2019-06-08T08:38:10.893Z,77824.00
2019-06-08T08:39:10.836Z,41472.00
2019-06-08T08:40:10.785Z,36544.00
2019-06-08T08:41:11.033Z,34688.00
2019-06-08T08:42:10.727Z,35456.00
2019-06-08T08:43:17.615Z,42112.00
2019-06-08T08:44:10.665Z,74752.00
2019-06-08T08:45:10.628Z,54368.00
2019-06-08T08:46:10.605Z,56640.00
2019-06-08T08:47:10.595Z,52768.00
2019-06-08T08:48:24.567Z,46048.00
2019-06-08T08:49:13.039Z,58400.00
2019-06-08T08:50:10.699Z,53568.00
2019-06-08T08:51:10.455Z,42624.00
2019-06-08T08:52:11.535Z,40832.00
2019-06-08T08:53:10.402Z,43360.00
2019-06-08T08:54:10.377Z,43584.00
2019-06-08T08:55:10.334Z,42496.00
2019-06-08T08:56:10.294Z,126016.00
2019-06-08T08:57:10.298Z,123328.00
2019-06-08T08:58:10.281Z,115808.00
2019-06-08T08:59:10.817Z,113600.00
2019-06-08T09:00:10.191Z,118400.00
2019-06-08T09:01:10.165Z,115456.00
2019-06-08T09:02:11.492Z,121504.00
2019-06-08T09:03:25.244Z,59712.00
2019-06-08T09:04:10.077Z,53088.00
2019-06-08T09:05:10.061Z,46976.00
2019-06-08T09:06:10.047Z,40960.00
2019-06-08T09:07:10.676Z,43712.00
2019-06-08T09:08:09.957Z,51008.00
2019-06-08T09:09:09.923Z,129824.00
2019-06-08T09:10:11.355Z,50432.00
2019-06-08T09:11:09.863Z,81856.00
2019-06-08T09:12:09.838Z,48960.00
2019-06-08T09:13:12.083Z,43776.00
2019-06-08T09:14:14.051Z,39968.00
2019-06-08T09:15:09.833Z,38336.00
2019-06-08T09:16:10.285Z,37888.00
2019-06-08T09:17:09.707Z,38688.00
2019-06-08T09:18:09.691Z,40032.00
2019-06-08T09:19:09.687Z,41600.00
2019-06-08T09:20:15.249Z,37312.00
2019-06-08T09:21:09.596Z,38816.00
2019-06-08T09:22:10.188Z,41632.00
2019-06-08T09:23:15.960Z,38112.00
2019-06-08T09:24:09.655Z,39104.00
2019-06-08T09:25:11.520Z,41568.00
2019-06-08T09:26:12.825Z,33760.00
2019-06-08T09:27:09.420Z,28192.00
2019-06-08T09:28:09.483Z,29184.00
2019-06-08T09:29:11.131Z,146144.00
2019-06-08T09:30:09.323Z,96320.00
2019-06-08T09:31:12.738Z,130144.00
2019-06-08T09:32:09.299Z,123296.00
2019-06-08T09:33:09.415Z,128192.00
2019-06-08T09:34:14.439Z,34752.00
2019-06-08T09:35:09.534Z,50368.00
2019-06-08T09:36:09.165Z,126400.00
2019-06-08T09:37:09.126Z,112192.00
2019-06-08T09:38:11.011Z,29184.00
2019-06-08T09:39:12.576Z,30912.00
2019-06-08T09:40:09.069Z,24256.00
2019-06-08T09:41:09.203Z,22144.00
2019-06-08T09:42:09.228Z,106464.00
2019-06-08T09:43:12.908Z,63264.00
2019-06-08T09:44:11.590Z,24512.00
2019-06-08T09:45:09.288Z,124224.00
2019-06-08T09:46:09.364Z,118240.00
2019-06-08T09:47:12.569Z,21536.00
2019-06-08T09:48:09.421Z,109152.00
2019-06-08T09:49:11.899Z,105248.00
2019-06-08T09:50:09.371Z,97664.00
2019-06-08T09:51:09.282Z,100384.00
2019-06-08T09:52:09.073Z,106400.00
2019-06-08T09:53:23.192Z,105184.00
2019-06-08T09:54:11.980Z,103872.00
2019-06-08T09:55:09.259Z,52000.00
2019-06-08T09:56:09.732Z,105952.00
2019-06-08T09:57:09.373Z,114240.00
2019-06-08T09:58:11.571Z,25280.00
2019-06-08T09:59:11.073Z,108192.00
2019-06-08T10:00:15.284Z,104096.00
2019-06-08T10:01:11.290Z,97376.00
2019-06-08T10:02:12.546Z,96608.00
2019-06-08T10:03:09.390Z,103904.00
2019-06-08T10:04:09.291Z,104800.00
2019-06-08T10:05:08.322Z,97888.00
2019-06-08T10:06:11.739Z,103904.00
2019-06-08T10:07:08.858Z,107008.00
2019-06-08T10:08:09.571Z,96800.00
2019-06-08T10:09:08.988Z,101792.00
2019-06-08T10:10:09.768Z,49024.00
2019-06-08T10:11:09.649Z,97376.00
2019-06-08T10:12:09.926Z,122144.00
2019-06-08T10:13:09.718Z,123552.00
2019-06-08T10:14:11.567Z,130272.00
2019-06-08T10:15:08.202Z,135296.00
2019-06-08T10:16:10.232Z,40320.00
2019-06-08T10:17:08.974Z,138976.00
2019-06-08T10:18:08.304Z,28032.00
2019-06-08T10:19:10.349Z,116000.00
2019-06-08T10:20:10.069Z,119392.00
2019-06-08T10:21:09.675Z,127648.00
2019-06-08T10:22:08.610Z,131104.00
2019-06-08T10:23:24.388Z,60576.00
2019-06-08T10:24:09.535Z,112896.00
2019-06-08T10:25:10.860Z,120448.00
2019-06-08T10:26:07.827Z,129664.00
2019-06-08T10:27:11.069Z,122944.00
2019-06-08T10:28:13.557Z,115680.00
2019-06-08T10:29:09.852Z,100384.00
2019-06-08T10:30:09.885Z,107264.00
2019-06-08T10:31:07.640Z,115392.00
2019-06-08T10:32:08.894Z,19676.00
2019-06-08T10:33:09.990Z,116384.00
2019-06-08T10:34:10.822Z,128064.00
2019-06-08T10:35:18.049Z,134912.00
2019-06-08T10:36:12.350Z,124256.00
2019-06-08T10:37:12.714Z,21632.00
2019-06-08T10:38:11.620Z,28224.00
2019-06-08T10:39:11.303Z,133536.00
2019-06-08T10:40:07.828Z,98528.00
2019-06-08T10:41:15.723Z,121600.00
2019-06-08T10:42:10.133Z,30080.00
2019-06-08T10:43:09.899Z,28768.00
2019-06-08T10:44:08.565Z,120768.00
2019-06-08T10:45:10.396Z,27680.00
2019-06-08T10:46:14.732Z,30432.00
2019-06-08T10:47:10.012Z,131936.00
2019-06-08T10:48:07.195Z,32256.00
2019-06-08T10:49:09.587Z,28352.00
2019-06-08T10:50:11.173Z,45856.00
2019-06-08T10:51:10.615Z,138112.00
2019-06-08T10:52:10.789Z,147392.00
2019-06-08T10:53:10.512Z,141024.00
2019-06-08T10:54:09.340Z,135968.00
2019-06-08T10:55:09.840Z,128672.00
2019-06-08T10:56:10.389Z,130464.00
2019-06-08T10:57:07.733Z,152160.00
2019-06-08T10:58:09.561Z,161760.00
2019-06-08T10:59:10.466Z,139456.00
2019-06-08T11:00:13.654Z,129280.00
2019-06-08T11:01:10.734Z,127168.00
2019-06-08T11:02:11.798Z,114976.00
2019-06-08T11:03:09.911Z,115072.00
2019-06-08T11:04:07.181Z,117120.00
2019-06-08T11:05:12.217Z,108608.00
2019-06-08T11:06:11.353Z,119008.00
2019-06-08T11:07:13.084Z,24512.00
2019-06-08T11:08:12.943Z,126176.00
2019-06-08T11:09:12.342Z,118016.00
2019-06-08T11:10:11.642Z,127744.00
2019-06-08T11:11:11.546Z,130176.00
2019-06-08T11:12:11.241Z,116128.00
2019-06-08T11:13:13.243Z,121472.00
2019-06-08T11:14:09.771Z,36032.00
2019-06-08T11:15:09.245Z,147200.00
2019-06-08T11:16:10.163Z,43968.00
2019-06-08T11:17:09.560Z,142720.00
2019-06-08T11:18:10.934Z,127520.00
2019-06-08T11:19:10.454Z,126080.00
2019-06-08T11:20:11.160Z,127776.00
2019-06-08T11:21:08.238Z,107584.00
2019-06-08T11:22:10.451Z,121024.00
2019-06-08T11:23:09.803Z,143488.00
2019-06-08T11:24:19.552Z,139200.00
2019-06-08T11:25:15.233Z,121824.00
2019-06-08T11:26:16.788Z,133120.00
2019-06-08T11:27:08.235Z,143808.00
2019-06-08T11:28:11.856Z,143552.00
2019-06-08T11:29:09.605Z,133568.00
2019-06-08T11:30:14.212Z,115744.00
2019-06-08T11:31:12.013Z,113024.00
2019-06-08T11:32:09.320Z,104672.00
2019-06-08T11:33:08.532Z,114784.00
2019-06-08T11:34:06.240Z,122048.00
2019-06-08T11:35:08.835Z,104960.00
2019-06-08T11:36:10.631Z,116576.00
2019-06-08T11:37:09.372Z,134240.00
2019-06-08T11:38:08.740Z,131872.00
2019-06-08T11:39:06.792Z,116832.00
2019-06-08T11:40:07.133Z,124960.00
2019-06-08T11:41:07.789Z,121632.00
2019-06-08T11:42:09.193Z,95840.00
2019-06-08T11:43:06.461Z,102496.00
2019-06-08T11:44:08.188Z,83232.00
2019-06-08T11:45:09.113Z,57824.00
2019-06-08T11:46:06.619Z,52096.00
2019-06-08T11:47:09.412Z,51264.00
2019-06-08T11:48:06.491Z,28096.00
2019-06-08T11:49:08.251Z,23072.00
2019-06-08T11:50:07.282Z,27520.00
2019-06-08T11:51:07.331Z,45952.00
2019-06-08T11:52:06.707Z,43264.00
2019-06-08T11:53:07.167Z,41248.00
2019-06-08T11:54:19.229Z,42240.00
2019-06-08T11:55:06.875Z,42144.00
2019-06-08T11:56:07.228Z,43744.00
2019-06-08T11:57:05.360Z,45600.00
2019-06-08T11:58:05.369Z,44128.00
2019-06-08T11:59:05.328Z,43328.00
2019-06-08T12:00:10.687Z,42528.00
2019-06-08T12:01:09.452Z,42624.00
2019-06-08T12:02:05.675Z,43744.00
2019-06-08T12:03:06.328Z,44320.00
2019-06-08T12:04:05.815Z,44352.00
2019-06-08T12:05:06.381Z,44512.00
2019-06-08T12:06:06.913Z,47584.00
2019-06-08T12:07:06.384Z,52384.00